Historyczne dane pomiarowe

Dodano dane terminowe – wersja testowa.

Dane z okresu 1951-2019

Wersja bazy: 1.34 [2019-03-16, lista zmian], aktualizacja planowana na 2019-04-15

Dane meteo z obszaru Polski uzyskane na podstawie danych udostępnionych przez Instytut Meteorologii i Gospodarki Wodnej – Państwowy Instytut Badawczy.

 

Wybierz Datę:    

       

TemperaturaWilgotnośćWiatrCiśnienieOpadyŚniegCzas trwania zjawisk
 Stacja t tx tn tng RH VA  wxwx mslp ppp RRR   cm mm wxwxwxwxwxwxwx
1999-08-14 14.4 20.4 8.8- 74.5- 2.7 2.0---- 0.0------------
1999-08-13 15.6 19.2 12.3- 84.0- 8.0 0.3---- 0.0------------
1999-08-12 17.5 20.4 15.4- 82.5- 6.0 1.7---- 0.0------------
1999-08-11 20.3 25.3 16.9- 81.8- 6.0 1.7---- 0.2------------
1999-08-10 23.9 30.7 19.2- 79.5- 7.3 5.0---- 10.5------------
1999-08-09 23.3 30.9 16.2- 73.5- 4.0 2.3---- 3.0------------
1999-08-08 21.6 25.7 17.2- 76.8- 4.7 3.0---- 0.0------------
1999-08-07 21.1 28.9 13.8- 75.3- 2.0 0.3---- 0.0------------
1999-08-06 19.2 24.9 14.8- 79.5- 7.3 1.7---- 3.0------------
1999-08-05 17.9 25.4 12.6- 74.8- 5.3 0.3---- 0.0------------
1999-08-04 17.2 22.7 12.8- 89.0- 7.3 0.7---- 0.8------------
1999-08-03 16.6 19.9 14.0- 85.8- 8.0 0.7---- 0.0------------
1999-08-02 16.0 17.9 14.3- 89.0- 8.0 0.3---- 3.0------------
1999-08-01 17.5 22.4 14.8- 83.3- 7.3 1.7---- 0.2------------
1999-07-31 17.6 23.1 11.5- 69.3- 6.0 0.7---- 0.0------------
1999-07-30 16.5 22.7 9.3- 72.0- 6.0 1.0---- 0.0------------
1999-07-29 17.8 21.9 13.0- 72.0- 3.3 1.3---- 0.0------------
1999-07-28 18.2 20.4 16.7- 88.8- 7.0 1.0---- 0.0------------
1999-07-27 20.1 23.9 17.7- 84.0- 8.0 1.3---- 1.8------------
1999-07-26 21.3 27.9 15.3- 85.0- 4.7 0.3---- 0.1------------
1999-07-25 17.8 22.6 12.8- 89.3- 6.7 0.7---- 0.0------------
1999-07-24 16.7 20.6 12.3- 87.3- 6.7 0.7---- 0.0------------
1999-07-23 15.9 20.6 13.2- 95.5- 8.0 2.3---- 15.0------------
1999-07-22 20.3 24.9 15.5- 80.8- 5.3 0.7---- 11.0------------
1999-07-21 21.7 28.9 15.3- 74.3- 3.3 1.3---- 3.8------------
1999-07-20 21.2 28.9 13.3- 65.0- 2.7 1.0---- 0.0------------
1999-07-19 18.8 26.1 10.8- 67.3- 4.0 1.0---- 0.0------------
1999-07-18 17.3 23.9 10.3- 70.8- 2.0 0.0---- 0.0------------
1999-07-17 15.8 23.4 9.3- 77.3- 6.0 1.0---- 0.0------------
1999-07-16 16.2 22.4 10.0- 78.8- 2.7 0.7---- 0.0------------
1999-07-15 17.3 20.7 15.3- 87.5- 6.0 2.0---- 3.5------------
1999-07-14 21.0 25.1 17.9- 80.3- 8.0 2.7---- 17.5------------
1999-07-13 20.5 24.9 16.2- 85.3- 6.0 1.3---- 0.2------------
1999-07-12 20.8 28.2 14.8- 78.0- 6.0 1.0---- 8.0------------
1999-07-11 21.4 24.9 17.7- 74.3- 8.0 3.3---- 0.0------------
1999-07-10 19.7 24.6 16.2- 88.8- 8.0 3.7---- 0.0------------
1999-07-09 22.3 26.7 17.0- 77.8- 6.0 2.0---- 0.0------------
1999-07-08 21.5 26.9 15.9- 86.0- 6.0 3.3---- 0.0------------
1999-07-07 22.7 29.4 15.4- 77.8- 4.7 1.0---- 57.5------------
1999-07-06 24.2 30.4 15.3- 63.5- 1.3 3.3---- 0.0------------
1999-07-05 23.6 31.4 14.3- 66.5- 0.0 1.3---- 0.0------------
1999-07-04 22.5 29.9 15.3- 63.0- 0.7 1.0---- 0.0------------
1999-07-03 19.8 25.4 14.3- 79.3- 5.3 0.0---- 0.0------------
1999-07-02 19.6 24.9 13.8- 76.3- 6.0 1.3---- 0.0------------
1999-07-01 18.7 24.9 11.6- 72.5- 4.7 1.7---- 0.0------------
1999-06-30 19.6 26.4 13.3- 79.3- 4.7 1.0---- 0.0------------
1999-06-29 18.6 23.5 12.8- 80.5- 6.0 1.0---- 0.0------------
1999-06-28 20.8 27.9 11.8- 62.0- 3.3 1.3---- 0.0------------
1999-06-27 18.9 26.9 9.3- 66.8- 0.3 1.3---- 0.0------------
1999-06-26 15.6 23.9 7.7- 75.0- 0.7 0.7---- 0.0------------
1999-06-25 14.1 18.9 10.3- 81.8- 4.7 1.7---- 0.0------------
1999-06-24 10.7 11.3 9.8- 96.0- 8.0 2.3---- 23.0------------
1999-06-23 10.0 11.0 8.6- 94.0- 8.0 4.0---- 11.0------------
1999-06-22 13.5 17.9 10.4- 97.0- 8.0 3.7---- 20.0------------
1999-06-21 18.8 24.4 15.3- 86.3- 7.7 0.7---- 40.0------------
1999-06-20 19.7 23.7 16.2- 80.0- 7.3 1.7---- 0.0------------
1999-06-19 18.9 23.7 14.6- 82.5- 7.3 2.3---- 0.0------------
1999-06-18 19.3 26.9 15.3- 79.8- 6.7 0.7---- 20.0------------
1999-06-17 20.1 24.4 17.4- 78.8- 8.0 1.3---- 0.1------------
1999-06-16 19.6 23.4 17.2- 88.3- 8.0 0.7---- 2.5------------
1012.9 ms

 

Źródłem pochodzenia danych jest Instytut Meteorologii i Gospodarki Wodnej – Państwowy Instytut Badawczy. Dane Instytutu Meteorologii i Gospodarki Wodnej – Państwowego Instytutu Badawczego zostały przetworzone.

Dane źródłowe można odnaleźć na stronie https://dane.imgw.pl